Time;durP1;ratioP1;P1;durP2;ratioP2;P2;SDS_P1;SDS_P2;PMS_P1;PMS_P2;Temp;Humidity;BMP_temperature;BMP_pressure;BME280_temperature;BME280_humidity;BME280_pressure;Samples;Min_cycle;Max_cycle;Signal;HPM_P1;HPM_P2
2023/09/03 00:01:48;;;;;;;4.4;2.9;;;;;;;;;;;;;
2023/09/03 00:04:14;;;;;;;2.9;2.6;;;;;;;;;;;;;
2023/09/03 00:06:40;;;;;;;2.9;2.6;;;;;;;;;;;;;
2023/09/03 00:09:06;;;;;;;3.7;2.4;;;;;;;;;;;;;
2023/09/03 00:11:31;;;;;;;4.3;3;;;;;;;;;;;;;
2023/09/03 00:13:58;;;;;;;3.5;2.7;;;;;;;;;;;;;
2023/09/03 00:16:23;;;;;;;3.9;2.7;;;;;;;;;;;;;
2023/09/03 00:18:49;;;;;;;3.7;2.6;;;;;;;;;;;;;
2023/09/03 00:21:14;;;;;;;3.6;2.5;;;;;;;;;;;;;
2023/09/03 00:23:41;;;;;;;3.8;2.9;;;;;;;;;;;;;
2023/09/03 00:26:06;;;;;;;3.1;2.6;;;;;;;;;;;;;
2023/09/03 00:28:31;;;;;;;3.3;2.6;;;;;;;;;;;;;
2023/09/03 00:30:56;;;;;;;4.1;2.5;;;;;;;;;;;;;
2023/09/03 00:33:21;;;;;;;2.8;2.6;;;;;;;;;;;;;
2023/09/03 00:35:47;;;;;;;2.5;2.3;;;;;;;;;;;;;
2023/09/03 00:38:11;;;;;;;4.4;2.6;;;;;;;;;;;;;
2023/09/03 00:40:36;;;;;;;3.7;2.5;;;;;;;;;;;;;
2023/09/03 00:43:02;;;;;;;3.6;2.8;;;;;;;;;;;;;
2023/09/03 00:45:27;;;;;;;3.7;2.6;;;;;;;;;;;;;
2023/09/03 00:47:52;;;;;;;3.8;2.5;;;;;;;;;;;;;
2023/09/03 00:50:18;;;;;;;3.1;2.8;;;;;;;;;;;;;
2023/09/03 00:52:43;;;;;;;4.3;2.7;;;;;;;;;;;;;
2023/09/03 00:55:10;;;;;;;3.5;3;;;;;;;;;;;;;
2023/09/03 00:57:35;;;;;;;14.5;8.8;;;;;;;;;;;;;
2023/09/03 01:00:00;;;;;;;20.4;10.7;;;;;;;;;;;;;
2023/09/03 01:02:25;;;;;;;14.8;8.4;;;;;;;;;;;;;
2023/09/03 01:04:52;;;;;;;5.3;2.7;;;;;;;;;;;;;
2023/09/03 01:07:16;;;;;;;3.8;2.7;;;;;;;;;;;;;
2023/09/03 01:09:42;;;;;;;4.6;2.6;;;;;;;;;;;;;
2023/09/03 01:12:07;;;;;;;3;2.3;;;;;;;;;;;;;
2023/09/03 01:14:32;;;;;;;4.2;2.8;;;;;;;;;;;;;
2023/09/03 01:16:59;;;;;;;3.9;2.6;;;;;;;;;;;;;
2023/09/03 01:19:24;;;;;;;3.7;2.6;;;;;;;;;;;;;
2023/09/03 01:21:50;;;;;;;3.5;2.5;;;;;;;;;;;;;
2023/09/03 01:24:15;;;;;;;2.7;2.3;;;;;;;;;;;;;
2023/09/03 01:26:40;;;;;;;3.5;2.6;;;;;;;;;;;;;
2023/09/03 01:29:05;;;;;;;3.5;2.7;;;;;;;;;;;;;
2023/09/03 01:31:31;;;;;;;3.6;2.4;;;;;;;;;;;;;
2023/09/03 01:34:01;;;;;;;4.5;2.3;;;;;;;;;;;;;
2023/09/03 01:36:20;;;;;;;2.9;2.5;;;;;;;;;;;;;
2023/09/03 01:38:46;;;;;;;3.6;2.3;;;;;;;;;;;;;
2023/09/03 01:41:13;;;;;;;3.9;2.3;;;;;;;;;;;;;
2023/09/03 01:43:39;;;;;;;3.1;2.3;;;;;;;;;;;;;
2023/09/03 01:46:04;;;;;;;3.6;2.5;;;;;;;;;;;;;
2023/09/03 01:48:29;;;;;;;4;2.6;;;;;;;;;;;;;
2023/09/03 01:50:54;;;;;;;2.7;2.3;;;;;;;;;;;;;
2023/09/03 01:53:20;;;;;;;3.2;2.4;;;;;;;;;;;;;
2023/09/03 01:55:47;;;;;;;3.1;2.5;;;;;;;;;;;;;
2023/09/03 01:58:10;;;;;;;3.6;2.6;;;;;;;;;;;;;
2023/09/03 02:00:36;;;;;;;3.1;2.5;;;;;;;;;;;;;
2023/09/03 02:03:01;;;;;;;4.5;2.7;;;;;;;;;;;;;
2023/09/03 02:05:26;;;;;;;4.2;3;;;;;;;;;;;;;
2023/09/03 02:07:51;;;;;;;3.7;2.6;;;;;;;;;;;;;
2023/09/03 02:10:17;;;;;;;3.7;3;;;;;;;;;;;;;
2023/09/03 02:12:42;;;;;;;3.6;2.5;;;;;;;;;;;;;
2023/09/03 02:15:11;;;;;;;3.6;2.4;;;;;;;;;;;;;
2023/09/03 02:17:36;;;;;;;3.9;2.8;;;;;;;;;;;;;
2023/09/03 02:20:01;;;;;;;3;2.7;;;;;;;;;;;;;
2023/09/03 02:22:26;;;;;;;4.4;2.6;;;;;;;;;;;;;
2023/09/03 02:24:52;;;;;;;3.4;2.5;;;;;;;;;;;;;
2023/09/03 02:27:17;;;;;;;3.5;2.7;;;;;;;;;;;;;
2023/09/03 02:29:43;;;;;;;2.5;2.2;;;;;;;;;;;;;
2023/09/03 02:32:08;;;;;;;2.8;2.5;;;;;;;;;;;;;
2023/09/03 02:34:37;;;;;;;4.4;2.3;;;;;;;;;;;;;
2023/09/03 02:37:01;;;;;;;3.6;2.4;;;;;;;;;;;;;
2023/09/03 02:39:26;;;;;;;4.2;2.9;;;;;;;;;;;;;
2023/09/03 02:41:51;;;;;;;2.8;2.6;;;;;;;;;;;;;
2023/09/03 02:44:18;;;;;;;4;2.9;;;;;;;;;;;;;
2023/09/03 02:46:43;;;;;;;3.2;2.9;;;;;;;;;;;;;
2023/09/03 02:49:09;;;;;;;5.9;3.3;;;;;;;;;;;;;
2023/09/03 02:51:33;;;;;;;4.2;2.8;;;;;;;;;;;;;
2023/09/03 02:53:59;;;;;;;3.5;2.7;;;;;;;;;;;;;
2023/09/03 02:56:24;;;;;;;4.8;2.9;;;;;;;;;;;;;
2023/09/03 02:58:51;;;;;;;3.4;2.7;;;;;;;;;;;;;
2023/09/03 03:01:16;;;;;;;4.6;2.7;;;;;;;;;;;;;
2023/09/03 03:03:41;;;;;;;4.1;2.7;;;;;;;;;;;;;
2023/09/03 03:06:06;;;;;;;3.2;2.9;;;;;;;;;;;;;
2023/09/03 03:08:32;;;;;;;3.8;2.9;;;;;;;;;;;;;
2023/09/03 03:10:57;;;;;;;3.3;2.6;;;;;;;;;;;;;
2023/09/03 03:13:24;;;;;;;4.3;2.7;;;;;;;;;;;;;
2023/09/03 03:15:51;;;;;;;3.2;2.6;;;;;;;;;;;;;
2023/09/03 03:18:16;;;;;;;3.8;2.5;;;;;;;;;;;;;
2023/09/03 03:20:42;;;;;;;3.5;2.7;;;;;;;;;;;;;
2023/09/03 03:23:07;;;;;;;4;2.8;;;;;;;;;;;;;
2023/09/03 03:25:32;;;;;;;3.4;2.7;;;;;;;;;;;;;
2023/09/03 03:27:59;;;;;;;4.4;2.8;;;;;;;;;;;;;
2023/09/03 03:30:24;;;;;;;3.3;2.8;;;;;;;;;;;;;
2023/09/03 03:32:49;;;;;;;4;2.6;;;;;;;;;;;;;
2023/09/03 03:35:14;;;;;;;4.2;2.6;;;;;;;;;;;;;
2023/09/03 03:37:42;;;;;;;5.1;2.6;;;;;;;;;;;;;
2023/09/03 03:40:07;;;;;;;3.8;2.6;;;;;;;;;;;;;
2023/09/03 03:42:33;;;;;;;4.2;3;;;;;;;;;;;;;
2023/09/03 03:44:58;;;;;;;5.1;3.6;;;;;;;;;;;;;
2023/09/03 03:47:23;;;;;;;3.3;3;;;;;;;;;;;;;
2023/09/03 03:49:48;;;;;;;4.2;2.6;;;;;;;;;;;;;
2023/09/03 03:52:13;;;;;;;2.8;2.6;;;;;;;;;;;;;
2023/09/03 03:54:38;;;;;;;4.4;2.7;;;;;;;;;;;;;
2023/09/03 03:57:03;;;;;;;6;3.1;;;;;;;;;;;;;
2023/09/03 03:59:30;;;;;;;3.6;2.8;;;;;;;;;;;;;
2023/09/03 04:02:33;;;;;;;5;2.6;;;;;;;15.55;96.7666;945.1884;;;;
2023/09/03 04:05:01;;;;;;;5.7;2.6;;;;;;;15.54;96.46289;945.2414;;;;
2023/09/03 04:07:26;;;;;;;3.1;2.8;;;;;;;15.49;96.70703;945.194;;;;
2023/09/03 04:09:56;;;;;;;3.6;2.9;;;;;;;15.44;97.49121;945.1578;;;;
2023/09/03 04:12:21;;;;;;;3.4;2.5;;;;;;;15.51;96.9668;945.1347;;;;
2023/09/03 04:14:46;;;;;;;3.4;2.4;;;;;;;15.55;95.99316;945.1805;;;;
2023/09/03 04:17:12;;;;;;;3.1;2.6;;;;;;;15.63;94.75;945.1892;;;;
2023/09/03 04:19:38;;;;;;;3.5;2.4;;;;;;;15.63;94.94629;945.1707;;;;
2023/09/03 04:22:04;;;;;;;3;2.4;;;;;;;15.62;95.26758;945.2213;;;;
2023/09/03 04:24:29;;;;;;;3.5;2.7;;;;;;;15.66;94.0625;945.2446;;;;
2023/09/03 04:26:57;;;;;;;3.8;2.5;;;;;;;15.67;93.38477;945.3056;;;;
2023/09/03 04:29:22;;;;;;;4.3;2.8;;;;;;;15.66;93.66992;945.361;;;;
2023/09/03 04:31:53;;;;;;;4.4;2.7;;;;;;;15.63;93.50391;945.4221;;;;
2023/09/03 04:34:16;;;;;;;3.4;2.5;;;;;;;15.63;93.44434;945.3972;;;;
2023/09/03 04:36:42;;;;;;;3.6;2.8;;;;;;;15.41;95.75391;945.3484;;;;
2023/09/03 04:39:08;;;;;;;4.1;2.9;;;;;;;15.35;96.95215;945.2865;;;;
2023/09/03 04:41:33;;;;;;;3.4;2.7;;;;;;;15.36;96.84961;945.2377;;;;
2023/09/03 04:43:59;;;;;;;4.1;3.2;;;;;;;15.4;96.88281;945.2714;;;;
2023/09/03 04:46:25;;;;;;;4.6;3;;;;;;;15.4;97.02148;945.2866;;;;
2023/09/03 04:48:50;;;;;;;4.1;2.7;;;;;;;15.41;96.96582;945.3156;;;;
2023/09/03 04:51:16;;;;;;;2.8;2.6;;;;;;;15.44;96.9375;945.2846;;;;
2023/09/03 04:53:41;;;;;;;3;2.7;;;;;;;15.45;96.24805;945.361;;;;
2023/09/03 04:56:06;;;;;;;4.4;2.9;;;;;;;15.53;96.09082;945.3972;;;;
2023/09/03 04:58:31;;;;;;;3.5;2.9;;;;;;;15.58;95.5;945.4799;;;;
2023/09/03 05:00:58;;;;;;;4.9;2.5;;;;;;;15.59;95.03027;945.5019;;;;
2023/09/03 05:03:23;;;;;;;2.8;2.4;;;;;;;15.53;94.9707;945.5111;;;;
2023/09/03 05:05:50;;;;;;;3.7;2.8;;;;;;;15.52;94.99219;945.5464;;;;
2023/09/03 05:08:15;;;;;;;3.8;3;;;;;;;15.56;95.22168;945.5642;;;;
2023/09/03 05:10:43;;;;;;;8.9;8.1;;;;;;;15.52;95.75586;945.5978;;;;
2023/09/03 05:13:08;;;;;;;5.4;4.9;;;;;;;15.64;95.50293;945.5305;;;;
2023/09/03 05:15:34;;;;;;;6.1;3.2;;;;;;;15.51;96.12207;945.6291;;;;
2023/09/03 05:17:59;;;;;;;3.9;2.8;;;;;;;15.43;97.17773;945.6691;;;;
2023/09/03 05:20:29;;;;;;;3.5;2.9;;;;;;;15.53;97.32715;945.6781;;;;
2023/09/03 05:22:54;;;;;;;3.8;2.9;;;;;;;15.65;96.17676;945.6878;;;;
2023/09/03 05:25:21;;;;;;;3.1;2.7;;;;;;;15.8;95.64258;945.6454;;;;
2023/09/03 05:27:46;;;;;;;3.3;2.6;;;;;;;16;95.06348;945.6909;;;;
2023/09/03 05:30:14;;;;;;;3.6;2.8;;;;;;;16.17;94.05762;945.6688;;;;
2023/09/03 05:32:39;;;;;;;4;2.9;;;;;;;16.32;93.1748;945.6794;;;;
2023/09/03 05:35:06;;;;;;;3.1;2.8;;;;;;;16.48;92.38867;945.7326;;;;
2023/09/03 05:37:31;;;;;;;4.9;3.1;;;;;;;16.58;91.05566;945.7107;;;;
2023/09/03 05:39:57;;;;;;;3.5;2.8;;;;;;;16.67;90.69238;945.7554;;;;
2023/09/03 05:42:23;;;;;;;4.4;3;;;;;;;16.71;90.42188;945.7408;;;;
2023/09/03 05:44:48;;;;;;;4.3;2.9;;;;;;;16.54;90.62891;945.7252;;;;
2023/09/03 05:47:18;;;;;;;3.8;3;;;;;;;16.5;90.93262;945.8194;;;;
2023/09/03 05:49:38;;;;;;;3.3;2.8;;;;;;;16.5;91.51172;945.9127;;;;
2023/09/03 05:52:07;;;;;;;2.8;2.5;;;;;;;16.73;90.50684;945.991;;;;
2023/09/03 05:54:32;;;;;;;3.6;2.4;;;;;;;16.77;89.83203;945.8718;;;;
2023/09/03 05:56:58;;;;;;;4.3;2.6;;;;;;;16.74;90.23047;945.9233;;;;
2023/09/03 05:59:23;;;;;;;3.2;2.7;;;;;;;16.97;90.36914;945.9247;;;;
2023/09/03 06:01:51;;;;;;;4.1;2.5;;;;;;;17.09;88.97168;945.981;;;;
2023/09/03 06:04:15;;;;;;;5.2;3.7;;;;;;;17.22;87.70898;946.0198;;;;
2023/09/03 06:06:44;;;;;;;2.9;2.5;;;;;;;17.21;88.15918;946.0826;;;;
2023/09/03 06:09:09;;;;;;;4.1;2.6;;;;;;;17.2;88.05469;946.152;;;;
2023/09/03 06:11:39;;;;;;;3.4;2.5;;;;;;;17.25;87.95898;946.1755;;;;
2023/09/03 06:14:03;;;;;;;2.7;2.4;;;;;;;17.35;87.6543;946.1864;;;;
2023/09/03 06:16:30;;;;;;;2.9;2.2;;;;;;;17.51;86.90918;946.2448;;;;
2023/09/03 06:18:55;;;;;;;2.5;2.3;;;;;;;17.44;86.84863;946.2419;;;;
2023/09/03 06:21:21;;;;;;;3.8;2.4;;;;;;;17.14;88.30859;946.2206;;;;
2023/09/03 06:23:46;;;;;;;4.1;2.5;;;;;;;17.3;88.44531;946.2944;;;;
2023/09/03 06:26:13;;;;;;;4.8;2.4;;;;;;;17.58;87.47949;946.2654;;;;
2023/09/03 06:28:38;;;;;;;3;2.6;;;;;;;17.83;87.30859;946.2876;;;;
2023/09/03 06:31:06;;;;;;;4.9;2.8;;;;;;;18;87.45703;946.3591;;;;
2023/09/03 06:33:31;;;;;;;5.2;2.7;;;;;;;18.33;86.11719;946.3026;;;;
2023/09/03 06:35:58;;;;;;;3.6;2.5;;;;;;;18.68;83.95215;946.4402;;;;
2023/09/03 06:38:27;;;;;;;4;2.6;;;;;;;18.93;80.68359;946.4705;;;;
2023/09/03 06:40:51;;;;;;;3.8;2.5;;;;;;;18.85;80.76172;946.4567;;;;
2023/09/03 06:43:16;;;;;;;2.8;2.3;;;;;;;18.92;81.35742;946.5343;;;;
2023/09/03 06:45:41;;;;;;;3.5;2.5;;;;;;;18.68;80.90625;946.5313;;;;
2023/09/03 06:48:10;;;;;;;5;2.6;;;;;;;18.66;82.14648;946.571;;;;
2023/09/03 06:50:35;;;;;;;3.3;2.3;;;;;;;18.73;81.68066;946.5721;;;;
2023/09/03 06:53:02;;;;;;;3.4;2.3;;;;;;;19.02;79.31348;946.6811;;;;
2023/09/03 06:55:27;;;;;;;2.6;2.2;;;;;;;19.06;79.4375;946.7166;;;;
2023/09/03 06:57:55;;;;;;;3.2;2.2;;;;;;;19.48;78.49902;946.7103;;;;
2023/09/03 07:00:20;;;;;;;5.5;2.3;;;;;;;19.74;77.37891;946.7119;;;;
2023/09/03 07:02:46;;;;;;;5.6;2.2;;;;;;;19.94;77.04199;946.6805;;;;
2023/09/03 07:05:11;;;;;;;3;1.9;;;;;;;19.8;76.5166;946.6553;;;;
2023/09/03 07:07:38;;;;;;;2.7;2.2;;;;;;;19.93;78.67383;946.6483;;;;
2023/09/03 07:10:03;;;;;;;2.6;2.2;;;;;;;20.27;76.86523;946.6199;;;;
2023/09/03 07:12:30;;;;;;;4;2.2;;;;;;;20.61;74.86914;946.5983;;;;
2023/09/03 07:14:55;;;;;;;3.3;2.3;;;;;;;20.88;73.35938;946.558;;;;
2023/09/03 07:17:22;;;;;;;3.4;2;;;;;;;21.12;71.18945;946.6213;;;;
2023/09/03 07:19:47;;;;;;;2.6;2.2;;;;;;;21.37;70.52734;946.6149;;;;
2023/09/03 07:22:12;;;;;;;3.7;2.4;;;;;;;21.79;69.79688;946.6015;;;;
2023/09/03 07:24:38;;;;;;;3.8;1.9;;;;;;;22.48;66.47852;946.6027;;;;
2023/09/03 07:27:03;;;;;;;2.7;2;;;;;;;23.04;64.6123;946.5828;;;;
2023/09/03 07:29:28;;;;;;;2.1;1.9;;;;;;;22.77;63.96289;946.5829;;;;
2023/09/03 07:31:53;;;;;;;2.3;2.1;;;;;;;23;63.78418;946.5681;;;;
2023/09/03 07:34:22;;;;;;;3.1;2.2;;;;;;;23.94;60.29297;946.5923;;;;
2023/09/03 07:36:47;;;;;;;2.4;2.1;;;;;;;23.9;61.37109;946.5308;;;;
2023/09/03 07:39:15;;;;;;;3;2.2;;;;;;;24.27;61.54102;946.5349;;;;
2023/09/03 07:41:41;;;;;;;3.7;2;;;;;;;24.81;58.70215;946.4992;;;;
2023/09/03 07:44:08;;;;;;;3;2.1;;;;;;;25.42;57.25684;946.4114;;;;
2023/09/03 07:46:33;;;;;;;1.9;1.7;;;;;;;25.58;56.29688;946.428;;;;
2023/09/03 07:48:58;;;;;;;2.1;1.9;;;;;;;25.08;56.54199;946.3901;;;;
2023/09/03 07:51:23;;;;;;;3.4;1.9;;;;;;;24.64;58.00781;946.4264;;;;
2023/09/03 07:53:50;;;;;;;2.6;2.1;;;;;;;24.48;59.94336;946.4094;;;;
2023/09/03 07:56:15;;;;;;;2.2;1.8;;;;;;;24.73;58.79785;946.4064;;;;
2023/09/03 07:58:48;;;;;;;3.5;1.9;;;;;;;24.59;60.22852;946.4419;;;;
2023/09/03 08:01:16;;;;;;;2.4;1.8;;;;;;;24.82;59.70508;946.5276;;;;
2023/09/03 08:03:41;;;;;;;2.1;1.9;;;;;;;24.55;58.00684;946.5123;;;;
2023/09/03 08:06:07;;;;;;;2.8;2;;;;;;;25.01;57.48828;946.5561;;;;
2023/09/03 08:08:32;;;;;;;3.7;1.7;;;;;;;25.26;57.21289;946.5687;;;;
2023/09/03 08:10:57;;;;;;;2.6;2.3;;;;;;;25.19;56.75586;946.5618;;;;
2023/09/03 08:13:22;;;;;;;4.2;2.1;;;;;;;25.46;55.38477;946.579;;;;
2023/09/03 08:15:48;;;;;;;2.2;1.8;;;;;;;25.52;56.13574;946.5633;;;;
2023/09/03 08:18:13;;;;;;;3.4;2;;;;;;;25.64;54.37891;946.5999;;;;
2023/09/03 08:20:39;;;;;;;3.1;2;;;;;;;25.19;55.42188;946.6799;;;;
2023/09/03 08:23:04;;;;;;;2.6;2;;;;;;;25.74;56.09277;946.7051;;;;
2023/09/03 08:25:29;;;;;;;2.8;2;;;;;;;25.42;54.55371;946.7073;;;;
2023/09/03 08:27:54;;;;;;;2.4;1.9;;;;;;;24.89;56.08105;946.6755;;;;
2023/09/03 08:30:20;;;;;;;2.6;2.2;;;;;;;24.97;56.52832;946.7134;;;;
2023/09/03 08:32:45;;;;;;;3.2;2.2;;;;;;;25.45;56.22266;946.7084;;;;
2023/09/03 08:35:12;;;;;;;2.4;2;;;;;;;26.05;56.06055;946.7188;;;;
2023/09/03 08:37:37;;;;;;;2.4;1.8;;;;;;;25.72;52.42578;946.6848;;;;
2023/09/03 08:40:04;;;;;;;1.8;1.6;;;;;;;25.97;53.875;946.7363;;;;
2023/09/03 08:42:29;;;;;;;2.6;1.9;;;;;;;26.15;54.91406;946.7822;;;;
2023/09/03 08:44:54;;;;;;;2;1.6;;;;;;;25.79;55.47363;946.8168;;;;
2023/09/03 08:47:20;;;;;;;2.3;2.1;;;;;;;25.84;55.25391;946.8644;;;;
2023/09/03 08:49:46;;;;;;;2.6;1.9;;;;;;;25.82;55.55859;946.9014;;;;
2023/09/03 08:52:12;;;;;;;3;2.1;;;;;;;26.06;53.99219;946.9022;;;;
2023/09/03 08:54:42;;;;;;;2.2;1.8;;;;;;;25.91;55.38184;946.8405;;;;
2023/09/03 08:57:09;;;;;;;2.1;1.9;;;;;;;26.57;54.91797;946.7415;;;;
2023/09/03 08:59:32;;;;;;;2.4;2;;;;;;;26.83;52.34375;946.6303;;;;
2023/09/03 09:01:58;;;;;;;2;1.9;;;;;;;26.78;52.7998;946.5514;;;;
2023/09/03 09:04:23;;;;;;;2.2;2;;;;;;;27.06;52.54785;946.6284;;;;
2023/09/03 09:06:51;;;;;;;2.5;2;;;;;;;27.11;53.18262;946.6532;;;;
2023/09/03 09:09:15;;;;;;;2.4;1.9;;;;;;;26.94;52.56934;946.6506;;;;
2023/09/03 09:11:42;;;;;;;2.8;2.1;;;;;;;26.47;54.46973;946.6253;;;;
2023/09/03 09:14:08;;;;;;;2.1;1.9;;;;;;;26.2;57.40527;946.533;;;;
2023/09/03 09:16:35;;;;;;;2.1;1.9;;;;;;;25.74;58.49219;946.5444;;;;
2023/09/03 09:19:02;;;;;;;2.6;2;;;;;;;25.76;58.37695;946.5438;;;;
2023/09/03 09:21:30;;;;;;;3;2.1;;;;;;;25.57;61.09375;946.5685;;;;
2023/09/03 09:23:53;;;;;;;2.1;1.8;;;;;;;25.24;58.69824;946.4863;;;;
2023/09/03 09:26:22;;;;;;;3.8;2.2;;;;;;;25.08;59.55078;946.5336;;;;
2023/09/03 09:28:43;;;;;;;2.7;1.8;;;;;;;25.02;57.69043;946.5737;;;;
2023/09/03 09:31:10;;;;;;;2.5;2.1;;;;;;;25.17;60.73145;946.6063;;;;
2023/09/03 09:33:35;;;;;;;1.8;1.7;;;;;;;24.99;59.8457;946.6113;;;;
2023/09/03 09:36:01;;;;;;;2.4;1.9;;;;;;;25.65;56.14063;946.5831;;;;
2023/09/03 09:38:27;;;;;;;2;1.8;;;;;;;26.14;54.42773;946.5745;;;;
2023/09/03 09:40:51;;;;;;;2.1;1.8;;;;;;;26.31;55.1582;946.577;;;;
2023/09/03 09:43:21;;;;;;;3;1.9;;;;;;;26.34;53.93066;946.5474;;;;
2023/09/03 09:45:46;;;;;;;2.9;1.8;;;;;;;26.36;55.6377;946.5184;;;;
2023/09/03 09:48:15;;;;;;;2.3;2.1;;;;;;;26.04;57.43164;946.4827;;;;
2023/09/03 09:50:40;;;;;;;2.3;2;;;;;;;26.09;57.27246;946.4579;;;;
2023/09/03 09:53:05;;;;;;;3.1;2;;;;;;;26.13;56.5791;946.4196;;;;
2023/09/03 09:55:32;;;;;;;2.5;2;;;;;;;26.11;56.95605;946.4455;;;;
2023/09/03 09:57:56;;;;;;;2.3;1.9;;;;;;;26.19;57.35645;946.3552;;;;
2023/09/03 10:00:21;;;;;;;2.7;2.2;;;;;;;26.02;60.92969;946.3271;;;;
2023/09/03 10:02:46;;;;;;;3.2;2.2;;;;;;;26.52;55.95508;946.3242;;;;
2023/09/03 10:05:12;;;;;;;3.1;2.3;;;;;;;26.72;55.8252;946.3755;;;;
2023/09/03 10:07:38;;;;;;;3.1;2.3;;;;;;;26.98;55.24023;946.3147;;;;
2023/09/03 10:10:02;;;;;;;3.2;1.8;;;;;;;27.22;53.68164;946.3772;;;;
2023/09/03 10:12:29;;;;;;;3.2;2.1;;;;;;;27.68;53.07227;946.4114;;;;
2023/09/03 10:14:54;;;;;;;3.6;2;;;;;;;27.5;54.43848;946.4018;;;;
2023/09/03 10:17:20;;;;;;;2.7;1.8;;;;;;;27.74;55.46582;946.3727;;;;
2023/09/03 10:19:47;;;;;;;2.8;1.9;;;;;;;27.53;55.08301;946.3373;;;;
2023/09/03 10:22:11;;;;;;;4.7;2.4;;;;;;;27.06;57.31445;946.3682;;;;
2023/09/03 10:24:36;;;;;;;2.5;2;;;;;;;27.46;53.15332;946.382;;;;
2023/09/03 10:27:01;;;;;;;3.7;1.8;;;;;;;28.04;50.96484;946.4344;;;;
2023/09/03 10:29:27;;;;;;;2.2;1.7;;;;;;;28.35;50.29688;946.4537;;;;
2023/09/03 10:31:53;;;;;;;2.6;1.9;;;;;;;28.24;51.40332;946.4902;;;;
2023/09/03 10:34:18;;;;;;;2.8;1.7;;;;;;;28.22;52.93359;946.5062;;;;
2023/09/03 10:36:47;;;;;;;2.2;1.8;;;;;;;28.02;54.13281;946.5153;;;;
2023/09/03 10:39:12;;;;;;;3.1;2.1;;;;;;;28.13;53.08984;946.562;;;;
2023/09/03 10:41:38;;;;;;;3.4;1.8;;;;;;;28.02;51.46094;946.5619;;;;
2023/09/03 10:44:03;;;;;;;1.8;1.7;;;;;;;27.92;53.26563;946.5618;;;;
2023/09/03 10:46:34;;;;;;;2.1;1.9;;;;;;;27.85;52.96191;946.6055;;;;
2023/09/03 10:48:57;;;;;;;2;1.7;;;;;;;27.89;53.61914;946.6588;;;;
2023/09/03 10:51:22;;;;;;;2.1;1.7;;;;;;;27.65;54.04199;946.6828;;;;
2023/09/03 10:53:47;;;;;;;3.1;1.7;;;;;;;27.18;55.27734;946.6953;;;;
2023/09/03 10:56:13;;;;;;;2.2;1.7;;;;;;;26.49;58.62598;946.7129;;;;
2023/09/03 10:58:38;;;;;;;2.7;1.7;;;;;;;27.12;54.25098;946.6992;;;;
2023/09/03 11:01:06;;;;;;;2.6;1.6;;;;;;;27.3;53.76172;946.6685;;;;
2023/09/03 11:03:31;;;;;;;2.3;2;;;;;;;26.67;59.29004;946.6397;;;;
2023/09/03 11:05:56;;;;;;;2.4;1.8;;;;;;;26.93;60.72363;946.5789;;;;
2023/09/03 11:08:21;;;;;;;3;1.9;;;;;;;27.19;58.82324;946.524;;;;
2023/09/03 11:10:47;;;;;;;2;1.7;;;;;;;27.25;58.71289;946.533;;;;
2023/09/03 11:13:12;;;;;;;2.9;1.7;;;;;;;27.2;58.06738;946.5659;;;;
2023/09/03 11:15:39;;;;;;;2.4;2;;;;;;;27.76;55.84766;946.5349;;;;
2023/09/03 11:18:06;;;;;;;2.1;1.8;;;;;;;27.9;56.66016;946.5234;;;;
2023/09/03 11:20:31;;;;;;;2.3;1.8;;;;;;;27.45;56.95898;946.4905;;;;
2023/09/03 11:22:56;;;;;;;2.7;2;;;;;;;27.28;56.72559;946.4539;;;;
2023/09/03 11:25:24;;;;;;;3.1;2;;;;;;;27.41;56.7666;946.423;;;;
2023/09/03 11:27:49;;;;;;;2.5;1.8;;;;;;;27.09;58.98926;946.4391;;;;
2023/09/03 11:30:16;;;;;;;2;1.8;;;;;;;27.35;57.38574;946.5591;;;;
2023/09/03 11:32:42;;;;;;;2.5;2;;;;;;;27.3;60.22656;946.5374;;;;
2023/09/03 11:35:11;;;;;;;2.2;1.8;;;;;;;27.34;56.91113;946.5284;;;;
2023/09/03 11:37:39;;;;;;;3.2;2.2;;;;;;;27.72;55.74805;946.4899;;;;
2023/09/03 11:40:06;;;;;;;3.8;1.9;;;;;;;27.69;56.3252;946.4021;;;;
2023/09/03 11:42:29;;;;;;;2.7;1.8;;;;;;;27.81;55.97266;946.355;;;;
2023/09/03 11:44:55;;;;;;;2.5;1.7;;;;;;;28.43;54.64648;946.3743;;;;
2023/09/03 11:47:20;;;;;;;2;1.6;;;;;;;29;52.65625;946.2947;;;;
2023/09/03 11:49:47;;;;;;;2.6;2;;;;;;;29.34;51.64648;946.33;;;;
2023/09/03 11:52:10;;;;;;;2.8;2.1;;;;;;;28.81;53.33496;946.3069;;;;
2023/09/03 11:54:37;;;;;;;3.1;2.1;;;;;;;29.45;50.49121;946.3223;;;;
2023/09/03 11:57:02;;;;;;;1.8;1.7;;;;;;;29.2;51.3457;946.4253;;;;
2023/09/03 11:59:27;;;;;;;2;1.6;;;;;;;29.85;49.77344;946.408;;;;
2023/09/03 12:01:54;;;;;;;2.2;2;;;;;;;30.05;48.21973;946.5105;;;;
2023/09/03 12:04:19;;;;;;;2.2;2;;;;;;;29.78;48.01367;946.509;;;;
2023/09/03 12:06:46;;;;;;;2.6;1.9;;;;;;;28.85;50.65137;946.527;;;;
2023/09/03 12:09:11;;;;;;;2.5;1.7;;;;;;;28.72;50.67188;946.4727;;;;
2023/09/03 12:11:36;;;;;;;1.9;1.7;;;;;;;28.93;50.93457;946.4447;;;;
2023/09/03 12:14:01;;;;;;;2.7;1.9;;;;;;;28.72;50.80273;946.4069;;;;
2023/09/03 12:16:28;;;;;;;2.5;1.7;;;;;;;27.99;54.84375;946.3969;;;;
2023/09/03 12:18:55;;;;;;;2.6;1.9;;;;;;;27.87;52.95215;946.4485;;;;
2023/09/03 12:21:20;;;;;;;2.6;1.9;;;;;;;27.53;54.67871;946.4201;;;;
2023/09/03 12:23:48;;;;;;;2.1;1.9;;;;;;;27.42;54.31055;946.5259;;;;
2023/09/03 12:26:13;;;;;;;2;1.8;;;;;;;26.96;55.94922;946.5125;;;;
2023/09/03 12:28:41;;;;;;;2.8;2.1;;;;;;;26.81;55.94336;946.4241;;;;
2023/09/03 12:31:08;;;;;;;2.2;2;;;;;;;26.95;56.46973;946.4533;;;;
2023/09/03 12:33:32;;;;;;;2.6;2;;;;;;;27.79;53.76172;946.4378;;;;
2023/09/03 12:35:57;;;;;;;2.1;1.9;;;;;;;28;53.19238;946.3959;;;;
2023/09/03 12:38:24;;;;;;;2.8;2;;;;;;;28.25;51.55957;946.4138;;;;
2023/09/03 12:40:49;;;;;;;2.4;2;;;;;;;27.8;53.94141;946.4142;;;;
2023/09/03 12:43:15;;;;;;;2.2;1.7;;;;;;;27.58;55.72949;946.4006;;;;
2023/09/03 12:45:44;;;;;;;2.6;1.9;;;;;;;26.79;58.66504;946.3917;;;;
2023/09/03 12:48:09;;;;;;;2.9;2.1;;;;;;;26.88;57.96582;946.363;;;;
2023/09/03 12:50:34;;;;;;;2.3;2.1;;;;;;;26.98;58.27441;946.3375;;;;
2023/09/03 12:52:59;;;;;;;3;2.1;;;;;;;27.65;55.12207;946.4086;;;;
2023/09/03 12:55:27;;;;;;;1.9;1.8;;;;;;;28.03;53.29199;946.3881;;;;
2023/09/03 12:57:52;;;;;;;2.6;2.2;;;;;;;28.26;54.75684;946.3808;;;;
2023/09/03 13:00:18;;;;;;;2.3;1.9;;;;;;;28.81;52.27734;946.4124;;;;
2023/09/03 13:02:43;;;;;;;3.2;1.9;;;;;;;29.21;50.20313;946.4058;;;;
2023/09/03 13:05:08;;;;;;;2.1;1.7;;;;;;;28.77;49.90527;946.2991;;;;
2023/09/03 13:07:35;;;;;;;2.4;2;;;;;;;28.03;54.11133;946.4001;;;;
2023/09/03 13:10:00;;;;;;;2.3;1.7;;;;;;;28.01;54.00195;946.4108;;;;
2023/09/03 13:12:27;;;;;;;3.5;2;;;;;;;28.61;50.29102;946.3816;;;;
2023/09/03 13:14:52;;;;;;;2.5;1.9;;;;;;;28.96;49.46094;946.4125;;;;
2023/09/03 13:17:17;;;;;;;2.5;1.9;;;;;;;28.42;53.75391;946.455;;;;
2023/09/03 13:19:43;;;;;;;1.9;1.8;;;;;;;27.89;57.24121;946.4614;;;;
2023/09/03 13:22:10;;;;;;;1.7;1.6;;;;;;;27.97;54.93457;946.4743;;;;
2023/09/03 13:24:35;;;;;;;3.6;1.9;;;;;;;27.81;54.64258;946.4409;;;;
2023/09/03 13:27:01;;;;;;;2.2;1.8;;;;;;;27.86;53.79297;946.4391;;;;
2023/09/03 13:29:26;;;;;;;2.4;1.9;;;;;;;27.93;54.04004;946.4308;;;;
2023/09/03 13:31:55;;;;;;;2.1;1.7;;;;;;;28.19;52.49023;946.3972;;;;
2023/09/03 13:34:20;;;;;;;2.2;1.9;;;;;;;28.26;51.3457;946.3133;;;;
2023/09/03 13:36:46;;;;;;;1.8;1.6;;;;;;;27.98;53.49902;946.2647;;;;
2023/09/03 13:39:11;;;;;;;2.4;1.8;;;;;;;28.02;53.8252;946.3097;;;;
2023/09/03 13:41:37;;;;;;;2.1;1.9;;;;;;;27.89;54.50977;946.296;;;;
2023/09/03 13:44:02;;;;;;;2.3;1.7;;;;;;;27.98;53.71289;946.2544;;;;
2023/09/03 13:46:31;;;;;;;2.1;1.8;;;;;;;27.8;53.51465;946.2537;;;;
2023/09/03 13:48:55;;;;;;;3.1;2;;;;;;;27.53;55.56836;946.2794;;;;
2023/09/03 13:51:22;;;;;;;2.4;1.8;;;;;;;27.67;55.0293;946.257;;;;
2023/09/03 13:53:49;;;;;;;2.2;1.8;;;;;;;27.7;55.41309;946.2527;;;;
2023/09/03 13:56:11;;;;;;;2.7;2.1;;;;;;;27.92;54.7041;946.2816;;;;
2023/09/03 13:58:38;;;;;;;1.9;1.8;;;;;;;27.8;55.92383;946.2605;;;;
2023/09/03 14:01:04;;;;;;;2.1;1.7;;;;;;;27.67;54.60254;946.3455;;;;
2023/09/03 14:03:29;;;;;;;1.9;1.7;;;;;;;27.28;56.80762;946.3127;;;;
2023/09/03 14:05:54;;;;;;;2.2;1.9;;;;;;;27.3;57.25977;946.2285;;;;
2023/09/03 14:08:23;;;;;;;2.2;1.8;;;;;;;27.37;56.81934;946.2431;;;;
2023/09/03 14:10:48;;;;;;;2;1.8;;;;;;;27.5;55.91016;946.2461;;;;
2023/09/03 14:13:15;;;;;;;2.5;2;;;;;;;27.49;56.66992;946.244;;;;
2023/09/03 14:15:41;;;;;;;2.1;1.8;;;;;;;27.61;55.1875;946.2494;;;;
2023/09/03 14:18:07;;;;;;;3.2;1.8;;;;;;;27.12;57.16699;946.1701;;;;
2023/09/03 14:20:32;;;;;;;3.6;2;;;;;;;26.97;57.96582;946.1883;;;;
2023/09/03 14:23:00;;;;;;;2.9;2.3;;;;;;;27.17;56.88867;946.1902;;;;
2023/09/03 14:25:25;;;;;;;2;1.8;;;;;;;26.96;58.93652;946.1847;;;;
2023/09/03 14:27:52;;;;;;;3.4;2;;;;;;;26.98;56.8418;946.1778;;;;
2023/09/03 14:30:17;;;;;;;2.2;2;;;;;;;26.79;58.74902;946.1683;;;;
2023/09/03 14:32:46;;;;;;;2.3;2;;;;;;;27.13;58.40137;946.1846;;;;
2023/09/03 14:35:11;;;;;;;2.1;1.9;;;;;;;26.63;59.02344;946.0988;;;;
2023/09/03 14:37:37;;;;;;;2.9;2.1;;;;;;;26.86;59.37305;946.0089;;;;
2023/09/03 14:40:04;;;;;;;2;1.8;;;;;;;27.05;58.23535;946.0826;;;;
2023/09/03 14:42:27;;;;;;;1.9;1.8;;;;;;;26.73;58.20801;946.0753;;;;
2023/09/03 14:44:53;;;;;;;1.9;1.7;;;;;;;26.57;57.96191;946.0486;;;;
2023/09/03 14:47:18;;;;;;;2;1.9;;;;;;;26.61;58.83203;946.0781;;;;
2023/09/03 14:49:43;;;;;;;2.8;2;;;;;;;26.52;58.60645;946.0556;;;;
2023/09/03 14:52:08;;;;;;;2.2;1.7;;;;;;;26.67;58.40234;945.9762;;;;
2023/09/03 14:54:34;;;;;;;1.9;1.8;;;;;;;26.76;58.0332;946.0093;;;;
2023/09/03 14:56:58;;;;;;;2.1;1.9;;;;;;;26.51;60.39258;946.0366;;;;
2023/09/03 14:59:27;;;;;;;2.2;1.6;;;;;;;26.41;59.5625;946.0989;;;;
2023/09/03 15:01:52;;;;;;;2.1;1.9;;;;;;;26.26;60.0625;946.0941;;;;
2023/09/03 15:04:18;;;;;;;2.3;2;;;;;;;26.26;60.2041;946.0844;;;;
2023/09/03 15:06:43;;;;;;;2.2;1.9;;;;;;;26.1;60.08887;946.0549;;;;
2023/09/03 15:09:09;;;;;;;3;2;;;;;;;25.99;61.11523;946.1503;;;;
2023/09/03 15:11:34;;;;;;;2;1.8;;;;;;;26.08;60.31152;946.1152;;;;
2023/09/03 15:14:02;;;;;;;2;1.8;;;;;;;26.15;60.28418;946.0751;;;;
2023/09/03 15:16:25;;;;;;;2.6;2;;;;;;;25.95;60.66016;946.1239;;;;
2023/09/03 15:18:53;;;;;;;2.3;1.6;;;;;;;25.79;61.04102;946.1306;;;;
2023/09/03 15:21:15;;;;;;;2.7;1.7;;;;;;;25.82;61.33887;946.23;;;;
2023/09/03 15:23:41;;;;;;;2.8;1.9;;;;;;;25.44;62.85742;946.195;;;;
2023/09/03 15:26:06;;;;;;;3.7;1.9;;;;;;;25.46;63.00293;946.178;;;;
2023/09/03 15:28:33;;;;;;;2.2;2;;;;;;;25.5;62.28809;946.2003;;;;
2023/09/03 15:30:58;;;;;;;2.1;1.8;;;;;;;25.49;62.47559;946.1589;;;;
2023/09/03 15:33:23;;;;;;;2.4;1.9;;;;;;;25.36;63.17871;946.1664;;;;